Time;durP1;ratioP1;P1;durP2;ratioP2;P2;SDS_P1;SDS_P2;PMS_P1;PMS_P2;Temp;Humidity;BMP_temperature;BMP_pressure;BME280_temperature;BME280_humidity;BME280_pressure;Samples;Min_cycle;Max_cycle;Signal;HPM_P1;HPM_P2
2022/08/10 00:01:29;;;;;;;5.05;3.30;;;;;;;24.36;30.98;100594.78;5001727;28;20041;-84
2022/08/10 00:03:56;;;;;;;6.30;3.13;;;;;;;24.21;31.19;100592.25;5022350;28;20092;-83
2022/08/10 00:06:23;;;;;;;3.65;3.33;;;;;;;24.26;31.25;100596.00;5008641;28;20061;-84
2022/08/10 00:08:50;;;;;;;6.32;3.53;;;;;;;24.30;30.90;100593.75;5024529;28;20044;-85
2022/08/10 00:11:17;;;;;;;5.22;3.40;;;;;;;24.30;31.16;100585.59;5016153;28;20052;-85
2022/08/10 00:13:44;;;;;;;4.97;3.28;;;;;;;24.34;30.95;100592.25;5024927;28;20049;-84
2022/08/10 00:16:12;;;;;;;5.15;3.42;;;;;;;24.39;30.55;100580.78;5034887;28;20049;-84
2022/08/10 00:18:38;;;;;;;11.75;3.63;;;;;;;24.35;31.00;100577.66;5039774;28;20107;-84
2022/08/10 00:21:06;;;;;;;5.93;3.40;;;;;;;24.40;30.81;100577.03;5022278;28;20037;-85
2022/08/10 00:23:34;;;;;;;3.97;3.42;;;;;;;24.42;31.47;100586.63;5024461;28;20122;-84
2022/08/10 00:26:02;;;;;;;5.63;2.88;;;;;;;24.44;31.44;100576.41;5002986;28;20060;-85
2022/08/10 00:28:29;;;;;;;6.65;3.15;;;;;;;24.45;31.35;100577.25;5023265;28;20045;-84
2022/08/10 00:30:56;;;;;;;4.50;3.45;;;;;;;24.46;31.39;100573.53;5041147;28;20114;-84
2022/08/10 00:33:23;;;;;;;5.88;3.15;;;;;;;24.44;31.76;100578.28;4990074;28;20053;-83
2022/08/10 00:35:49;;;;;;;4.85;3.38;;;;;;;24.39;31.64;100578.06;4994232;28;20049;-83
2022/08/10 00:38:16;;;;;;;5.38;2.72;;;;;;;24.39;31.02;100575.34;5005337;28;20444;-81
2022/08/10 00:40:43;;;;;;;5.10;3.25;;;;;;;24.35;31.83;100579.53;5035834;28;20164;-82
2022/08/10 00:43:09;;;;;;;4.05;3.40;;;;;;;24.35;31.97;100580.38;5005367;28;20489;-82
2022/08/10 00:45:36;;;;;;;5.45;3.35;;;;;;;24.33;32.11;100585.19;5006626;28;20100;-81
2022/08/10 00:48:03;;;;;;;3.63;2.88;;;;;;;24.26;31.66;100590.59;4993126;28;20045;-81
2022/08/10 00:50:30;;;;;;;3.83;2.95;;;;;;;24.30;31.44;100585.59;5018493;28;20046;-82
2022/08/10 00:52:57;;;;;;;5.70;3.13;;;;;;;24.31;31.83;100587.25;5016923;28;20112;-81
2022/08/10 00:55:23;;;;;;;5.45;3.13;;;;;;;24.35;31.53;100580.38;5024247;28;20053;-81
2022/08/10 00:57:50;;;;;;;6.22;3.95;;;;;;;24.31;31.75;100584.53;4996588;28;20049;-82
2022/08/10 01:00:22;;;;;;;7.63;3.78;;;;;;;24.33;31.42;100589.78;5009159;28;20037;-82
2022/08/10 01:02:49;;;;;;;4.20;3.20;;;;;;;24.32;31.91;100588.91;4987593;28;20394;-81
2022/08/10 01:05:18;;;;;;;8.27;3.40;;;;;;;24.22;31.96;100586.63;5037722;28;20044;-83
2022/08/10 01:08:03;;;;;;;4.07;3.30;;;;;;;24.11;32.69;100587.22;5007344;28;20045;-83
2022/08/10 01:10:52;;;;;;;3.97;3.03;;;;;;;24.04;32.38;100591.78;5004959;28;20058;-84
2022/08/10 01:13:25;;;;;;;5.88;3.10;;;;;;;24.13;32.71;100592.47;5008502;28;20536;-84
2022/08/10 01:16:09;;;;;;;5.78;3.13;;;;;;;24.01;32.18;100586.78;4989605;28;20529;-84
2022/08/10 01:18:54;;;;;;;4.97;2.95;;;;;;;24.05;32.73;100578.03;4975674;28;20444;-83
2022/08/10 01:21:46;;;;;;;8.52;3.72;;;;;;;23.98;32.34;100585.31;4987973;28;20061;-83
2022/08/10 01:24:37;;;;;;;3.70;2.90;;;;;;;23.98;33.44;100587.22;4946310;28;20053;-83
2022/08/10 01:27:10;;;;;;;3.78;2.88;;;;;;;24.08;32.95;100584.09;4989837;28;20481;-83
2022/08/10 01:29:59;;;;;;;4.95;3.25;;;;;;;24.02;32.33;100578.47;5004340;28;20660;-82
2022/08/10 01:32:31;;;;;;;4.40;3.10;;;;;;;24.25;31.73;100586.22;4988569;28;20105;-87
2022/08/10 01:35:17;;;;;;;9.45;3.22;;;;;;;24.17;32.05;100577.41;5025255;28;20137;-87
2022/08/10 01:37:51;;;;;;;4.75;3.58;;;;;;;24.26;31.92;100574.31;4954853;28;20164;-87
2022/08/10 01:40:21;;;;;;;4.47;3.47;;;;;;;24.14;32.61;100578.66;4981582;28;20486;-87
2022/08/10 01:42:50;;;;;;;3.75;3.20;;;;;;;24.12;32.78;100572.63;5004745;28;20053;-85
2022/08/10 01:45:18;;;;;;;5.88;3.25;;;;;;;23.95;32.68;100580.31;5038207;28;20624;-85
2022/08/10 01:50:47;;;;;;;4.85;3.10;;;;;;;23.84;34.23;100583.63;4977879;28;20052;-85
2022/08/10 01:53:32;;;;;;;4.75;3.20;;;;;;;23.83;33.96;100590.91;4969898;28;20046;-85
2022/08/10 01:56:09;;;;;;;3.90;3.05;;;;;;;23.88;33.30;100584.88;4961523;28;20068;-85
2022/08/10 01:58:37;;;;;;;5.57;3.10;;;;;;;23.97;32.98;100589.09;5032701;28;20048;-83
2022/08/10 02:01:05;;;;;;;3.60;3.30;;;;;;;23.97;32.57;100586.38;5037692;28;20504;-83
2022/08/10 02:03:33;;;;;;;6.38;3.38;;;;;;;23.91;32.62;100594.50;5007771;28;20516;-83
2022/08/10 02:06:22;;;;;;;7.82;3.42;;;;;;;23.89;32.85;100600.13;4972535;28;20064;-83
2022/08/10 02:08:49;;;;;;;4.15;3.10;;;;;;;23.91;33.22;100603.47;5016334;28;20038;-84
2022/08/10 02:11:31;;;;;;;9.27;3.65;;;;;;;23.93;32.42;100603.25;5005490;28;20124;-85
2022/08/10 02:14:18;;;;;;;4.90;3.45;;;;;;;23.90;32.36;100603.69;5023975;28;20482;-85
2022/08/10 02:16:48;;;;;;;4.85;3.22;;;;;;;23.89;32.96;100607.41;5029185;28;20057;-85
2022/08/10 02:19:17;;;;;;;2.97;2.65;;;;;;;23.90;32.99;100604.50;5034622;28;20517;-85
2022/08/10 02:21:45;;;;;;;4.85;2.90;;;;;;;23.90;33.09;100607.22;5006959;28;20045;-83
2022/08/10 02:24:33;;;;;;;6.30;3.28;;;;;;;23.90;32.77;100607.22;4984533;28;20442;-83
2022/08/10 02:27:00;;;;;;;5.15;3.28;;;;;;;23.91;32.25;100608.88;5013775;28;20041;-83
2022/08/10 02:29:29;;;;;;;6.50;3.33;;;;;;;23.85;32.70;100608.88;4991148;28;20034;-83
2022/08/10 02:31:55;;;;;;;6.28;3.30;;;;;;;23.74;32.70;100604.88;5006426;28;20552;-83
2022/08/10 02:34:27;;;;;;;8.63;3.42;;;;;;;23.67;32.78;100604.81;5023829;28;20056;-84
2022/08/10 02:36:56;;;;;;;5.07;3.63;;;;;;;23.67;32.65;100604.00;5001121;28;20092;-83
2022/08/10 02:39:23;;;;;;;7.05;3.67;;;;;;;23.66;32.77;100599.59;5032150;28;20057;-83
2022/08/10 02:42:08;;;;;;;9.77;4.40;;;;;;;23.47;32.84;100599.31;5005408;28;20041;-83
2022/08/10 02:45:18;;;;;;;4.50;3.10;;;;;;;23.47;33.20;100603.91;4988122;28;20045;-83
2022/08/10 02:48:08;;;;;;;6.40;3.17;;;;;;;23.47;33.35;100602.03;4966627;28;20041;-83
2022/08/10 02:50:37;;;;;;;5.95;3.38;;;;;;;23.60;32.98;100607.50;4987681;28;20100;-83
2022/08/10 02:53:05;;;;;;;6.20;3.40;;;;;;;23.61;33.01;100605.63;4997524;28;20061;-83
2022/08/10 02:55:42;;;;;;;8.50;3.67;;;;;;;23.34;33.60;100604.69;5023154;28;20500;-85
2022/08/10 02:58:25;;;;;;;4.68;3.22;;;;;;;23.47;33.41;100601.19;5018334;28;20045;-85
2022/08/10 03:00:54;;;;;;;4.28;2.90;;;;;;;23.51;33.31;100606.00;5005890;28;20501;-85
2022/08/10 03:03:30;;;;;;;5.30;3.08;;;;;;;23.35;34.27;100606.34;5022076;28;20665;-86
2022/08/10 03:06:00;;;;;;;4.85;3.63;;;;;;;23.37;34.11;100604.25;4982250;28;20056;-86
2022/08/10 03:08:30;;;;;;;4.43;3.03;;;;;;;23.42;33.43;100609.09;4981846;28;20061;-86
2022/08/10 03:10:59;;;;;;;5.07;3.28;;;;;;;23.40;33.94;100604.69;5009819;28;20049;-87
2022/08/10 03:13:27;;;;;;;7.32;3.35;;;;;;;23.38;33.94;100601.38;4989927;28;20041;-81
2022/08/10 03:15:55;;;;;;;5.93;3.10;;;;;;;23.34;34.24;100599.25;4989026;28;20048;-82
2022/08/10 03:18:23;;;;;;;6.50;3.30;;;;;;;23.30;34.27;100600.69;5019447;28;20046;-83
2022/08/10 03:20:50;;;;;;;4.45;3.00;;;;;;;23.35;33.90;100598.19;5021465;28;20136;-83
2022/08/10 03:23:18;;;;;;;6.15;3.30;;;;;;;23.29;33.84;100594.44;5004696;28;20103;-83
2022/08/10 03:25:47;;;;;;;5.40;4.00;;;;;;;23.18;33.99;100592.28;4993398;28;20064;-83
2022/08/10 03:28:25;;;;;;;4.72;3.20;;;;;;;23.15;33.67;100600.81;4986733;28;20056;-83
2022/08/10 03:30:52;;;;;;;;;;;;;;;22.68;34.53;100600.47;5039070;28;20408;-83
2022/08/10 03:33:20;;;;;;;6.50;3.67;;;;;;;22.88;34.26;100602.50;5006762;28;20014;-84
2022/08/10 03:35:48;;;;;;;5.75;3.65;;;;;;;22.93;34.16;100606.28;5001573;28;20596;-83
2022/08/10 03:38:35;;;;;;;5.05;3.83;;;;;;;22.86;34.37;100609.97;4994417;28;21023;-83
2022/08/10 03:41:04;;;;;;;4.90;3.30;;;;;;;22.86;34.42;100605.38;5019880;28;20095;-83
2022/08/10 03:43:32;;;;;;;5.05;3.72;;;;;;;22.82;34.24;100597.84;4992245;28;20070;-83
2022/08/10 03:46:02;;;;;;;6.28;3.35;;;;;;;22.70;34.78;100611.94;4985990;28;20049;-84
2022/08/10 03:48:29;;;;;;;6.82;3.33;;;;;;;22.73;34.54;100608.00;5004485;28;20045;-84
2022/08/10 03:51:16;;;;;;;6.60;3.63;;;;;;;22.58;34.77;100610.78;4986146;28;20511;-83
2022/08/10 03:53:43;;;;;;;4.22;3.03;;;;;;;22.74;34.48;100607.81;5005771;28;20046;-84
2022/08/10 03:56:31;;;;;;;6.00;3.28;;;;;;;22.84;34.39;100614.75;5002009;28;20115;-84
2022/08/10 03:58:59;;;;;;;6.68;3.58;;;;;;;22.77;34.56;100617.41;4970150;28;20038;-84
2022/08/10 04:01:27;;;;;;;5.35;3.22;;;;;;;22.87;34.51;100619.75;5001581;28;20432;-84
2022/08/10 04:04:14;;;;;;;4.20;2.95;;;;;;;22.90;34.92;100625.63;4957946;28;20393;-84
2022/08/10 04:06:48;;;;;;;5.20;3.45;;;;;;;22.89;34.79;100618.53;4991635;28;20129;-89
2022/08/10 04:09:20;;;;;;;4.53;3.17;;;;;;;22.88;34.49;100627.69;5020650;28;20103;-89
2022/08/10 04:11:46;;;;;;;5.55;2.97;;;;;;;22.93;34.60;100614.41;5022476;28;20165;-89
2022/08/10 04:14:13;;;;;;;4.30;3.30;;;;;;;22.94;34.32;100618.75;5012117;28;20041;-89
2022/08/10 04:17:00;;;;;;;8.18;3.55;;;;;;;22.89;34.53;100626.66;4974766;28;20115;-88
2022/08/10 04:19:28;;;;;;;5.03;3.08;;;;;;;22.93;34.68;100619.81;5038960;28;20045;-88
2022/08/10 04:22:27;;;;;;;3.85;3.40;;;;;;;22.69;34.92;100623.78;5017050;28;21419;-89
2022/08/10 04:24:58;;;;;;;3.85;3.42;;;;;;;22.83;34.76;100622.03;4942286;28;20500;-89
2022/08/10 04:27:25;;;;;;;5.65;3.50;;;;;;;22.87;34.44;100625.16;5036271;28;20053;-89
2022/08/10 04:29:54;;;;;;;6.88;4.53;;;;;;;22.86;34.52;100621.63;4979060;28;20049;-90
2022/08/10 04:32:21;;;;;;;6.53;3.60;;;;;;;22.63;34.80;100621.88;5008612;28;20060;-89
2022/08/10 04:34:48;;;;;;;6.45;3.38;;;;;;;22.65;34.97;100627.94;4993787;28;20049;-84
2022/08/10 04:37:17;;;;;;;5.90;3.72;;;;;;;22.56;35.16;100629.09;5021921;28;20052;-84
2022/08/10 04:39:43;;;;;;;8.88;3.22;;;;;;;22.65;35.10;100630.63;5024733;28;20037;-84
2022/08/10 04:42:10;;;;;;;4.25;3.08;;;;;;;22.66;34.90;100629.59;5026052;28;20442;-83
2022/08/10 04:44:37;;;;;;;5.40;3.05;;;;;;;22.76;34.83;100634.69;5020106;28;20401;-84
2022/08/10 04:47:04;;;;;;;5.32;3.72;;;;;;;22.70;34.95;100630.88;5038097;28;20045;-84
2022/08/10 04:49:33;;;;;;;7.93;3.72;;;;;;;22.59;35.28;100625.97;5025679;28;20083;-84
2022/08/10 04:52:20;;;;;;;3.97;3.33;;;;;;;22.53;35.12;100633.03;4994245;28;20053;-87
2022/08/10 04:54:50;;;;;;;4.05;3.13;;;;;;;22.47;35.56;100627.56;5004255;28;20048;-84
2022/08/10 04:57:17;;;;;;;7.10;3.60;;;;;;;22.64;35.27;100628.94;5008543;28;20104;-84
2022/08/10 04:59:44;;;;;;;6.07;3.40;;;;;;;22.65;34.85;100627.94;5009132;28;20045;-84
2022/08/10 05:02:11;;;;;;;6.85;3.92;;;;;;;22.58;35.34;100629.75;5035671;28;20053;-84
2022/08/10 05:04:57;;;;;;;7.03;3.58;;;;;;;22.72;35.00;100626.13;4987997;28;20452;-85
2022/08/10 05:07:24;;;;;;;4.25;2.83;;;;;;;22.79;34.94;100626.16;5021889;28;20041;-84
2022/08/10 05:09:53;;;;;;;4.80;3.22;;;;;;;22.71;35.23;100629.84;4983355;28;20052;-85
2022/08/10 05:12:35;;;;;;;4.47;3.50;;;;;;;22.60;35.34;100629.56;4988735;28;20050;-85
2022/08/10 05:15:06;;;;;;;;;;;;;;;22.29;35.88;100628.84;4990461;28;20046;-89
2022/08/10 05:17:34;;;;;;;8.05;3.72;;;;;;;22.68;35.20;100632.94;4995341;28;19929;-85
2022/08/10 05:20:03;;;;;;;5.85;3.42;;;;;;;22.70;35.23;100636.31;5037723;28;20060;-85
2022/08/10 05:22:38;;;;;;;5.32;3.22;;;;;;;22.64;35.31;100637.06;4984246;28;20068;-85
2022/08/10 05:25:09;;;;;;;5.90;3.20;;;;;;;22.71;35.37;100629.00;4989600;28;20374;-85
2022/08/10 05:27:36;;;;;;;4.05;3.60;;;;;;;22.77;35.40;100639.06;5008989;28;20100;-83
2022/08/10 05:30:04;;;;;;;10.48;3.72;;;;;;;22.83;35.27;100642.88;4977327;28;20038;-87
2022/08/10 05:32:33;;;;;;;6.53;3.83;;;;;;;22.80;35.47;100635.13;5011712;28;20146;-87
2022/08/10 05:35:20;;;;;;;5.85;3.58;;;;;;;22.96;35.42;100630.25;4988291;28;20069;-83
2022/08/10 05:38:14;;;;;;;6.85;3.25;;;;;;;22.86;35.19;100642.47;5015219;28;20050;-89
2022/08/10 05:41:10;;;;;;;8.10;3.90;;;;;;;22.85;35.75;100641.63;4947225;28;20046;-87
2022/08/10 05:52:45;;;;;;;13.25;3.63;;;;;;;23.03;35.54;100641.16;4991133;28;20048;-85
2022/08/10 05:55:11;;;;;;;3.75;3.08;;;;;;;23.14;35.08;100640.59;4958010;28;20551;-85
2022/08/10 05:57:43;;;;;;;7.05;3.40;;;;;;;23.14;35.41;100654.16;4989111;28;20420;-86
2022/08/10 06:00:13;;;;;;;8.40;3.97;;;;;;;23.15;35.15;100658.56;4986321;28;20041;-83
2022/08/10 06:03:57;;;;;;;9.52;3.53;;;;;;;22.84;35.68;100656.19;4967186;28;20135;-85
2022/08/10 06:06:25;;;;;;;7.45;3.90;;;;;;;23.21;35.17;100653.38;4941543;28;20129;-85
2022/08/10 06:08:52;;;;;;;5.55;3.83;;;;;;;23.31;35.02;100651.97;5000846;28;20052;-85
2022/08/10 06:11:21;;;;;;;6.22;3.78;;;;;;;23.33;35.11;100641.78;4986568;28;20428;-84
2022/08/10 06:16:55;;;;;;;5.18;3.33;;;;;;;23.41;35.27;100646.22;4975948;28;20132;-85
2022/08/10 06:19:22;;;;;;;5.78;3.88;;;;;;;23.49;35.20;100647.91;5006679;28;20041;-85
2022/08/10 06:21:48;;;;;;;3.70;3.30;;;;;;;23.48;35.23;100651.66;5038081;28;20049;-86
2022/08/10 06:24:32;;;;;;;7.57;4.15;;;;;;;23.39;35.26;100638.25;4993944;28;20041;-89
2022/08/10 06:36:37;;;;;;;4.25;3.45;;;;;;;23.60;35.26;100645.44;5021499;28;20040;-90
2022/08/10 06:39:05;;;;;;;7.63;3.78;;;;;;;23.66;35.35;100635.69;5008199;28;20139;-88
2022/08/10 06:41:53;;;;;;;5.10;3.65;;;;;;;23.77;35.64;100642.44;4974821;28;20582;-88
2022/08/10 06:44:48;;;;;;;7.78;4.10;;;;;;;23.70;36.26;100639.66;4971429;28;20065;-90
2022/08/10 06:47:17;;;;;;;8.18;4.30;;;;;;;23.75;35.55;100641.81;4991037;28;20505;-86
2022/08/10 06:49:51;;;;;;;5.85;3.65;;;;;;;23.69;35.42;100637.16;5021455;28;20437;-89
2022/08/10 06:52:19;;;;;;;6.07;4.03;;;;;;;23.73;35.37;100643.88;4988053;28;20037;-89
2022/08/10 06:54:47;;;;;;;6.80;3.33;;;;;;;23.81;35.10;100639.13;5008215;28;20049;-87
2022/08/10 06:57:14;;;;;;;7.68;3.60;;;;;;;23.83;35.50;100639.75;4975347;28;20045;-82
2022/08/10 06:59:45;;;;;;;6.40;3.67;;;;;;;23.86;35.17;100640.38;5019125;28;20049;-83
2022/08/10 07:02:46;;;;;;;4.75;3.53;;;;;;;23.80;35.63;100639.31;4966594;28;20056;-83
2022/08/10 07:05:18;;;;;;;5.38;3.28;;;;;;;23.97;35.74;100647.94;4964765;28;20041;-82
2022/08/10 07:07:46;;;;;;;5.75;3.28;;;;;;;24.00;35.38;100642.09;5021924;28;20037;-83
2022/08/10 07:10:20;;;;;;;4.25;3.50;;;;;;;24.07;35.64;100644.81;5020757;28;20052;-84
2022/08/10 07:12:48;;;;;;;4.57;3.33;;;;;;;24.14;35.61;100648.38;4955934;28;20412;-84
2022/08/10 07:15:17;;;;;;;5.22;3.10;;;;;;;24.23;35.83;100642.56;5011861;28;20042;-83
2022/08/10 07:17:45;;;;;;;6.00;3.65;;;;;;;24.31;35.51;100638.00;5038325;28;20128;-84
2022/08/10 07:20:17;;;;;;;3.88;2.72;;;;;;;24.30;35.37;100642.59;5013628;28;20053;-83
2022/08/10 07:22:51;;;;;;;6.22;4.40;;;;;;;24.29;35.26;100643.63;5008322;28;20414;-83
2022/08/10 07:25:40;;;;;;;3.92;3.00;;;;;;;24.30;35.27;100642.59;4941868;28;20041;-85
2022/08/10 07:28:08;;;;;;;4.72;3.13;;;;;;;24.30;35.12;100639.88;4988867;28;20046;-84
2022/08/10 07:30:37;;;;;;;4.70;2.92;;;;;;;24.41;35.30;100641.16;4976111;28;20045;-84
2022/08/10 07:33:04;;;;;;;3.13;2.70;;;;;;;24.50;35.12;100630.94;4983448;28;20049;-86
2022/08/10 07:35:34;;;;;;;4.78;3.35;;;;;;;24.51;35.05;100628.03;5019249;28;20439;-85
2022/08/10 07:38:17;;;;;;;6.72;3.10;;;;;;;24.54;35.09;100635.75;5004634;28;20050;-86
2022/08/10 07:40:46;;;;;;;3.58;2.92;;;;;;;24.64;34.83;100629.91;4969073;28;20038;-87
2022/08/10 07:43:14;;;;;;;6.38;3.17;;;;;;;24.69;34.75;100639.09;4973921;28;20049;-86
2022/08/10 07:45:41;;;;;;;5.18;2.67;;;;;;;24.72;34.82;100631.59;5018639;28;21598;-84
2022/08/10 07:48:14;;;;;;;4.97;3.08;;;;;;;24.74;34.66;100629.50;5024346;28;20500;-85
2022/08/10 07:50:41;;;;;;;3.88;2.88;;;;;;;24.82;34.82;100629.28;5032318;28;20037;-84
2022/08/10 07:53:12;;;;;;;4.53;2.67;;;;;;;24.87;34.86;100633.03;5010809;28;20084;-85
2022/08/10 07:55:42;;;;;;;3.97;3.20;;;;;;;24.92;34.95;100643.28;4993943;28;20121;-86
2022/08/10 07:58:33;;;;;;;5.60;2.50;;;;;;;25.00;34.44;100631.34;4998859;28;20056;-87
2022/08/10 08:01:00;;;;;;;5.15;3.08;;;;;;;25.05;34.22;100634.28;5024527;28;20037;-85
2022/08/10 08:03:28;;;;;;;3.40;2.40;;;;;;;25.09;34.36;100635.53;4995564;28;20516;-85
2022/08/10 08:05:56;;;;;;;2.95;2.53;;;;;;;25.09;34.16;100624.66;4994873;28;20107;-85
2022/08/10 08:08:38;;;;;;;3.47;2.55;;;;;;;25.12;33.93;100632.38;5016720;28;20489;-84
2022/08/10 08:11:05;;;;;;;4.15;2.42;;;;;;;25.15;33.88;100625.69;4990875;28;20046;-86
2022/08/10 08:13:32;;;;;;;5.95;2.97;;;;;;;25.19;34.10;100630.53;5006846;28;20063;-84
2022/08/10 08:16:03;;;;;;;8.85;4.00;;;;;;;25.20;33.61;100628.63;5004058;28;20052;-84
2022/08/10 08:18:45;;;;;;;5.80;2.50;;;;;;;25.23;33.77;100631.75;5029686;28;20045;-83
2022/08/10 08:21:24;;;;;;;6.75;3.00;;;;;;;25.25;34.07;100634.28;5004886;28;20049;-83
2022/08/10 08:24:14;;;;;;;4.07;3.20;;;;;;;25.25;33.55;100626.94;4985373;28;20136;-83
2022/08/10 08:27:01;;;;;;;8.43;2.88;;;;;;;25.24;33.69;100633.44;4973331;28;20064;-84
2022/08/10 08:29:35;;;;;;;7.07;3.58;;;;;;;25.19;33.29;100630.53;4989203;28;20104;-85
2022/08/10 08:32:03;;;;;;;8.80;3.15;;;;;;;25.21;33.53;100631.13;4972213;28;20041;-86
2022/08/10 08:35:26;;;;;;;4.07;2.72;;;;;;;25.10;33.99;100637.19;4991505;28;20037;-89
2022/08/10 08:37:53;;;;;;;5.27;3.00;;;;;;;25.21;34.09;100630.28;4942782;28;20129;-86
2022/08/10 08:40:43;;;;;;;4.72;2.63;;;;;;;25.24;33.78;100628.00;4942956;28;20516;-83
2022/08/10 08:43:51;;;;;;;3.35;2.33;;;;;;;25.26;33.97;100636.75;4992239;28;20043;-88
2022/08/10 08:47:03;;;;;;;6.25;2.95;;;;;;;25.31;33.78;100626.06;4964139;28;20099;-86
2022/08/10 08:50:22;;;;;;;5.60;2.80;;;;;;;25.42;33.71;100629.22;4938394;28;20038;-85
2022/08/10 08:53:21;;;;;;;5.47;3.05;;;;;;;25.42;33.54;100634.66;4938973;28;20092;-88
2022/08/10 08:56:02;;;;;;;5.15;2.88;;;;;;;25.50;33.38;100626.25;4974858;28;20477;-88
2022/08/10 08:59:29;;;;;;;6.57;2.95;;;;;;;25.28;33.37;100650.97;4974992;28;20080;-86
2022/08/10 09:02:18;;;;;;;7.45;3.20;;;;;;;25.42;33.42;100618.34;4978486;28;20053;-87
2022/08/10 09:14:28;;;;;;;3.13;2.65;;;;;;;25.59;33.30;100615.94;4992976;28;20175;-86
2022/08/10 09:17:28;;;;;;;5.25;2.75;;;;;;;25.66;32.68;100617.59;4959117;28;20041;-86
2022/08/10 09:20:07;;;;;;;8.85;3.15;;;;;;;25.67;32.63;100602.09;4969471;28;20045;-88
2022/08/10 09:23:00;;;;;;;3.85;2.67;;;;;;;25.67;33.23;100600.25;4971470;28;20046;-88
2022/08/10 09:25:36;;;;;;;3.40;2.90;;;;;;;25.74;33.19;100598.31;4967957;28;20053;-84
2022/08/10 09:28:09;;;;;;;4.57;2.90;;;;;;;25.77;32.93;100603.34;4986159;28;20120;-88
2022/08/10 09:30:43;;;;;;;5.03;3.10;;;;;;;25.81;32.59;100608.34;5032776;28;20066;-88
2022/08/10 09:33:56;;;;;;;3.28;2.90;;;;;;;25.85;32.05;100595.97;4976155;28;20459;-87
2022/08/10 09:36:46;;;;;;;3.15;2.75;;;;;;;25.87;31.60;100613.75;4966978;28;20052;-88
2022/08/10 09:39:26;;;;;;;5.85;2.90;;;;;;;25.70;31.03;100607.97;5022282;28;20049;-87
2022/08/10 09:42:33;;;;;;;5.22;2.88;;;;;;;25.65;31.58;100615.94;4965630;28;20464;-87
2022/08/10 09:45:15;;;;;;;3.17;2.40;;;;;;;25.72;31.47;100599.56;4971684;28;20045;-89
2022/08/10 09:48:08;;;;;;;5.37;3.10;;;;;;;25.63;29.73;100590.84;4986229;28;20534;-86
2022/08/10 09:50:44;;;;;;;;;;;;;;;25.69;30.42;100619.06;4982682;28;20455;-88
2022/08/10 09:54:11;;;;;;;3.67;3.00;;;;;;;25.84;29.70;100606.00;4965060;28;19933;-88
2022/08/10 09:57:21;;;;;;;3.83;2.33;;;;;;;25.84;29.25;100602.44;4922690;28;20043;-83
2022/08/10 10:00:13;;;;;;;2.92;2.35;;;;;;;25.94;29.60;100598.22;4947400;28;20496;-83
2022/08/10 10:02:49;;;;;;;4.05;2.92;;;;;;;25.92;29.18;100603.06;5005171;28;20053;-83
2022/08/10 10:05:16;;;;;;;5.55;2.72;;;;;;;25.95;29.09;100590.91;5016957;28;20057;-84
2022/08/10 10:12:28;;;;;;;3.90;2.67;;;;;;;26.06;30.10;100592.94;4992034;28;20114;-87
2022/08/10 10:15:21;;;;;;;4.63;2.60;;;;;;;26.08;29.24;100612.63;5002979;28;20107;-86
2022/08/10 10:18:01;;;;;;;4.15;2.10;;;;;;;26.16;29.08;100589.75;4972271;28;20041;-87
2022/08/10 10:20:51;;;;;;;3.63;2.90;;;;;;;26.23;29.40;100593.25;5024362;28;20114;-88
2022/08/10 10:23:37;;;;;;;5.38;2.80;;;;;;;26.23;29.36;100576.91;4999375;28;20053;-87
2022/08/10 10:26:20;;;;;;;3.28;2.53;;;;;;;26.28;28.85;100592.56;5003040;28;20049;-82
2022/08/10 10:29:01;;;;;;;5.03;2.67;;;;;;;26.19;27.94;100565.63;4953433;28;20061;-82
2022/08/10 10:32:16;;;;;;;3.20;2.70;;;;;;;26.18;28.39;100566.69;4943312;28;20053;-86
2022/08/10 10:43:26;;;;;;;7.40;2.80;;;;;;;26.22;28.28;100552.63;4914754;28;20048;-87
2022/08/10 10:46:06;;;;;;;4.07;2.42;;;;;;;26.28;28.55;100540.84;5002030;28;20513;-87
2022/08/10 10:49:07;;;;;;;9.23;3.20;;;;;;;26.32;28.42;100545.63;5019807;28;20104;-86
2022/08/10 10:51:49;;;;;;;4.13;2.53;;;;;;;26.35;28.83;100545.16;4994285;28;20061;-87
2022/08/10 10:54:34;;;;;;;4.00;2.85;;;;;;;26.39;26.95;100542.84;5019789;28;20034;-85
2022/08/10 10:57:18;;;;;;;5.63;2.63;;;;;;;26.41;27.75;100541.56;4983517;28;20496;-85
2022/08/10 11:00:08;;;;;;;6.95;2.92;;;;;;;26.46;26.26;100537.34;4980181;28;20552;-86
2022/08/10 11:02:42;;;;;;;5.38;2.45;;;;;;;26.48;26.33;100535.22;4983921;28;20128;-87
2022/08/10 11:05:18;;;;;;;9.80;3.45;;;;;;;26.50;26.28;100520.31;5056334;28;20057;-86
2022/08/10 11:07:56;;;;;;;7.00;2.60;;;;;;;26.53;26.49;100514.47;5001082;28;20053;-87
2022/08/10 11:11:00;;;;;;;3.78;2.75;;;;;;;26.48;26.42;100516.16;4968794;28;20232;-86
2022/08/10 11:13:41;;;;;;;2.65;2.20;;;;;;;26.61;26.89;100526.94;4924937;28;20112;-86
2022/08/10 11:16:47;;;;;;;3.85;2.70;;;;;;;26.70;26.91;100528.34;4960166;28;20739;-86
2022/08/10 11:19:35;;;;;;;4.00;2.72;;;;;;;26.67;26.29;100512.44;4956051;28;20123;-86
2022/08/10 11:22:29;;;;;;;6.00;2.63;;;;;;;26.67;25.43;100527.97;5012051;28;20122;-86
2022/08/10 11:25:08;;;;;;;5.72;2.70;;;;;;;26.67;25.96;100531.53;4970661;28;20049;-86
2022/08/10 11:27:57;;;;;;;6.43;2.80;;;;;;;26.63;25.62;100494.88;5037378;28;20037;-86
2022/08/10 11:30:32;;;;;;;6.10;3.10;;;;;;;26.59;25.50;100516.31;5003343;28;20049;-87
2022/08/10 11:33:33;;;;;;;5.97;3.15;;;;;;;26.64;26.03;100521.09;5020472;28;20049;-86
2022/08/10 11:36:29;;;;;;;7.35;2.85;;;;;;;26.74;26.25;100517.81;4945568;28;20061;-86
2022/08/10 11:39:23;;;;;;;4.68;2.72;;;;;;;26.71;25.70;100529.16;4989605;28;20111;-86
2022/08/10 11:41:54;;;;;;;3.10;2.80;;;;;;;26.83;25.95;100519.19;4973460;28;20053;-85
2022/08/10 11:44:48;;;;;;;6.60;2.90;;;;;;;26.81;25.06;100513.97;4985900;28;20041;-85
2022/08/10 11:47:22;;;;;;;6.15;2.80;;;;;;;26.82;24.99;100502.03;4995725;28;20095;-86
2022/08/10 11:49:52;;;;;;;7.43;3.08;;;;;;;26.87;25.36;100497.75;4981075;28;20042;-86
2022/08/10 11:52:23;;;;;;;4.80;2.70;;;;;;;26.90;25.66;100511.78;4988194;28;20042;-85
2022/08/10 11:54:54;;;;;;;4.07;2.88;;;;;;;26.94;24.62;100498.53;4980631;28;20045;-85
2022/08/10 11:57:30;;;;;;;5.75;2.67;;;;;;;26.96;25.13;100504.59;4995056;28;20125;-85
2022/08/10 12:00:18;;;;;;;3.78;2.42;;;;;;;26.98;25.70;100514.19;4931591;28;20060;-85
2022/08/10 12:02:48;;;;;;;3.33;3.03;;;;;;;27.02;25.34;100526.31;4949262;28;20485;-85
2022/08/10 12:05:22;;;;;;;5.07;3.28;;;;;;;27.01;25.18;100518.38;4964880;28;20133;-85
2022/08/10 12:08:10;;;;;;;11.18;3.10;;;;;;;27.03;25.24;100519.81;4958733;28;20104;-86
2022/08/10 12:10:57;;;;;;;4.93;2.72;;;;;;;27.02;25.15;100484.59;4960056;28;20043;-85
2022/08/10 12:13:28;;;;;;;4.82;2.90;;;;;;;27.05;25.24;100487.69;4982619;28;20449;-84
2022/08/10 12:16:07;;;;;;;3.42;2.97;;;;;;;27.10;25.68;100500.66;4975779;28;20046;-86
2022/08/10 12:18:48;;;;;;;5.50;3.15;;;;;;;27.13;24.37;100502.09;4946008;28;20525;-85
2022/08/10 12:21:25;;;;;;;7.63;3.13;;;;;;;27.09;24.45;100493.53;4944570;28;20073;-87
2022/08/10 12:23:56;;;;;;;6.72;3.13;;;;;;;27.11;25.03;100483.22;4973721;28;20042;-86
2022/08/10 12:26:38;;;;;;;5.10;3.13;;;;;;;27.12;25.08;100490.34;5016444;28;20444;-83
2022/08/10 12:29:20;;;;;;;5.38;3.22;;;;;;;27.18;24.42;100505.00;4966883;28;20060;-84
2022/08/10 12:32:08;;;;;;;3.28;2.90;;;;;;;27.13;24.73;100486.56;4988493;28;20352;-83
2022/08/10 12:34:44;;;;;;;6.03;3.05;;;;;;;27.19;25.26;100482.94;4995766;28;20147;-83
2022/08/10 12:37:25;;;;;;;4.55;3.13;;;;;;;27.25;24.64;100489.38;4972571;28;20406;-83
2022/08/10 12:40:02;;;;;;;4.63;3.22;;;;;;;27.18;24.43;100466.81;4967356;28;20054;-84
2022/08/10 12:43:03;;;;;;;4.13;2.97;;;;;;;27.21;25.13;100460.91;4947418;28;20391;-84
2022/08/10 12:46:11;;;;;;;4.25;2.90;;;;;;;27.21;25.16;100459.00;4924526;28;20137;-88
2022/08/10 12:49:13;;;;;;;4.97;2.88;;;;;;;27.16;23.75;100458.84;4955388;28;20064;-85
2022/08/10 12:51:48;;;;;;;3.45;2.95;;;;;;;27.22;24.32;100460.69;4920899;28;20050;-88
2022/08/10 12:54:17;;;;;;;9.38;2.97;;;;;;;27.25;24.26;100445.75;4983645;28;20081;-88
2022/08/10 12:57:51;;;;;;;3.22;2.92;;;;;;;27.21;24.45;100445.38;4965371;28;20076;-88
2022/08/10 13:00:19;;;;;;;3.15;2.85;;;;;;;27.33;25.06;100437.25;4906605;28;20188;-88
2022/08/10 13:02:46;;;;;;;7.00;3.17;;;;;;;27.38;25.18;100445.56;4986436;28;20038;-95